createdAt,value
2017-12-10T00:00:02.982Z,59.92
2017-12-10T00:02:37.362Z,59.96
2017-12-10T00:05:16.038Z,59.88
2017-12-10T00:07:50.455Z,60.17
2017-12-10T00:10:24.598Z,60.23
2017-12-10T00:12:58.749Z,60.29
2017-12-10T00:15:32.970Z,60.47
2017-12-10T00:18:07.085Z,60.46
2017-12-10T00:20:45.478Z,60.50
2017-12-10T00:23:21.062Z,60.17
2017-12-10T00:25:55.131Z,60.40
2017-12-10T00:28:29.126Z,60.50
2017-12-10T00:31:03.305Z,60.63
2017-12-10T00:33:37.834Z,60.44
2017-12-10T00:36:12.659Z,60.46
2017-12-10T00:38:47.294Z,60.45
2017-12-10T00:41:21.697Z,60.54
2017-12-10T00:43:55.849Z,60.52
2017-12-10T00:46:30.201Z,60.59
2017-12-10T00:49:04.470Z,60.73
2017-12-10T00:51:38.565Z,60.89
2017-12-10T00:54:12.721Z,60.79
2017-12-10T00:56:46.818Z,60.91
2017-12-10T00:59:20.892Z,60.70
2017-12-10T01:01:55.090Z,60.65
2017-12-10T01:04:29.690Z,60.63
2017-12-10T01:07:04.134Z,60.66
2017-12-10T01:09:38.737Z,60.47
2017-12-10T01:12:12.866Z,60.55
2017-12-10T01:14:47.005Z,60.38
2017-12-10T01:17:21.097Z,60.30
2017-12-10T01:19:55.253Z,60.28
2017-12-10T01:22:29.295Z,60.46
2017-12-10T01:25:04.785Z,60.40
2017-12-10T01:27:39.194Z,60.15
2017-12-10T01:30:15.922Z,60.12
2017-12-10T01:32:50.361Z,59.93
2017-12-10T01:35:24.489Z,60.24
2017-12-10T01:37:58.749Z,59.94
2017-12-10T01:40:34.970Z,59.79
2017-12-10T01:43:09.065Z,59.88
2017-12-10T01:45:43.098Z,59.66
2017-12-10T01:48:17.313Z,59.95
2017-12-10T01:50:51.517Z,60.00
2017-12-10T01:53:25.652Z,59.99
2017-12-10T01:55:59.851Z,60.31
2017-12-10T01:58:34.073Z,60.19
2017-12-10T02:01:08.258Z,60.37
2017-12-10T02:03:42.501Z,60.14
2017-12-10T02:06:17.385Z,59.65
2017-12-10T02:08:51.404Z,59.73
2017-12-10T02:11:25.558Z,59.67
2017-12-10T02:13:59.680Z,59.76
2017-12-10T02:16:33.899Z,59.81
2017-12-10T02:19:07.960Z,60.21
2017-12-10T02:21:42.050Z,60.58
2017-12-10T02:24:16.082Z,60.84
2017-12-10T02:26:50.123Z,60.96
2017-12-10T02:29:24.409Z,61.06
2017-12-10T02:31:58.873Z,61.01
2017-12-10T02:34:33.021Z,61.18
2017-12-10T02:37:07.185Z,60.99
2017-12-10T02:39:41.350Z,61.24
2017-12-10T02:42:15.419Z,61.20
2017-12-10T02:44:49.626Z,60.85
2017-12-10T02:47:23.762Z,60.91
2017-12-10T02:49:58.052Z,61.13
2017-12-10T02:52:32.130Z,61.38
2017-12-10T02:55:13.358Z,61.35
2017-12-10T02:57:47.729Z,61.31
2017-12-10T03:00:21.862Z,61.59
2017-12-10T03:02:55.919Z,61.19
2017-12-10T03:05:30.113Z,61.54
2017-12-10T03:08:04.386Z,61.29
2017-12-10T03:10:38.706Z,60.92
2017-12-10T03:13:12.865Z,60.66
2017-12-10T03:15:47.053Z,60.69
2017-12-10T03:18:21.095Z,60.64
2017-12-10T03:20:55.370Z,60.60
2017-12-10T03:23:29.530Z,60.59
2017-12-10T03:26:03.605Z,60.38
2017-12-10T03:28:37.758Z,60.01
2017-12-10T03:31:11.940Z,59.88
2017-12-10T03:33:45.750Z,59.62
2017-12-10T03:36:19.785Z,59.39
2017-12-10T03:38:53.927Z,59.44
2017-12-10T03:41:27.735Z,58.92
2017-12-10T03:44:01.758Z,58.69
2017-12-10T03:46:35.945Z,58.58
2017-12-10T03:49:10.078Z,58.75
2017-12-10T03:51:44.234Z,58.45
2017-12-10T03:54:18.389Z,58.37
2017-12-10T03:56:52.490Z,58.31
2017-12-10T03:59:26.753Z,58.42
2017-12-10T04:02:00.945Z,58.33
2017-12-10T04:04:35.130Z,58.38
2017-12-10T04:07:09.557Z,58.22
2017-12-10T04:09:43.750Z,58.09
2017-12-10T04:12:18.167Z,57.72
2017-12-10T04:14:52.256Z,57.46
2017-12-10T04:17:26.345Z,57.56
2017-12-10T04:20:00.496Z,57.32
2017-12-10T04:22:34.898Z,57.58
2017-12-10T04:25:14.917Z,57.58
2017-12-10T04:27:49.082Z,57.79
2017-12-10T04:30:23.133Z,57.59
2017-12-10T04:32:57.169Z,57.20
2017-12-10T04:35:31.303Z,57.52
2017-12-10T04:38:05.422Z,57.00
2017-12-10T04:40:39.498Z,56.42
2017-12-10T04:43:13.546Z,57.02
2017-12-10T04:45:47.622Z,57.55
2017-12-10T04:48:21.727Z,57.37
2017-12-10T04:50:55.825Z,57.67
2017-12-10T04:53:29.958Z,57.08
2017-12-10T04:56:04.061Z,57.17
2017-12-10T04:58:38.182Z,55.92
2017-12-10T05:01:12.227Z,55.95
2017-12-10T05:03:46.449Z,56.13
2017-12-10T05:06:20.450Z,56.58
2017-12-10T05:08:54.564Z,56.67
2017-12-10T05:11:28.670Z,56.26
2017-12-10T05:14:02.974Z,56.58
2017-12-10T05:16:37.158Z,56.22
2017-12-10T05:19:11.198Z,56.35
2017-12-10T05:21:45.326Z,56.16
2017-12-10T05:24:19.682Z,56.54
2017-12-10T05:26:54.057Z,56.93
2017-12-10T05:29:28.200Z,56.76
2017-12-10T05:32:02.267Z,56.30
2017-12-10T05:34:36.410Z,56.24
2017-12-10T05:37:10.511Z,56.44
2017-12-10T05:39:44.777Z,56.60
2017-12-10T05:42:19.161Z,56.20
2017-12-10T05:44:53.426Z,56.47
2017-12-10T05:47:27.575Z,56.95
2017-12-10T05:50:02.161Z,56.89
2017-12-10T05:52:36.642Z,56.90
2017-12-10T05:55:10.702Z,56.57
2017-12-10T05:57:44.875Z,56.36
2017-12-10T06:00:18.941Z,57.01
2017-12-10T06:02:53.097Z,56.20
2017-12-10T06:05:27.514Z,56.08
2017-12-10T06:08:01.738Z,56.40
2017-12-10T06:10:36.215Z,56.99
2017-12-10T06:13:10.382Z,57.19
2017-12-10T06:15:44.470Z,57.26
2017-12-10T06:18:18.882Z,57.65
2017-12-10T06:20:53.237Z,57.99
2017-12-10T06:23:27.675Z,58.05
2017-12-10T06:26:01.870Z,58.18
2017-12-10T06:28:36.205Z,58.25
2017-12-10T06:31:10.230Z,58.42
2017-12-10T06:33:44.386Z,58.65
2017-12-10T06:36:18.482Z,59.30
2017-12-10T06:41:26.078Z,60.01
2017-12-10T06:44:00.494Z,60.30
2017-12-10T06:46:34.637Z,60.27
2017-12-10T06:49:08.806Z,59.72
2017-12-10T06:51:42.935Z,60.19
2017-12-10T06:54:17.346Z,60.52
2017-12-10T06:56:51.430Z,60.57
2017-12-10T06:59:25.461Z,60.23
2017-12-10T07:01:59.554Z,60.51
2017-12-10T07:04:33.729Z,59.65
2017-12-10T07:07:07.869Z,59.62
2017-12-10T07:09:42.086Z,59.87
2017-12-10T07:12:16.157Z,60.36
2017-12-10T07:14:50.310Z,60.35
2017-12-10T07:17:24.358Z,59.82
2017-12-10T07:19:58.937Z,59.84
2017-12-10T07:22:33.106Z,59.79
2017-12-10T07:25:26.025Z,59.11
2017-12-10T07:28:00.213Z,59.89
2017-12-10T07:30:34.690Z,60.07
2017-12-10T07:33:08.946Z,59.88
2017-12-10T07:35:42.967Z,59.80
2017-12-10T07:38:17.206Z,59.72
2017-12-10T07:40:51.281Z,60.42
2017-12-10T07:43:25.790Z,60.06
2017-12-10T07:45:59.860Z,59.69
2017-12-10T07:48:34.326Z,58.98
2017-12-10T07:51:08.415Z,58.96
2017-12-10T07:53:42.635Z,57.96
2017-12-10T07:56:16.726Z,58.15
2017-12-10T07:58:51.093Z,56.69
2017-12-10T08:01:25.442Z,56.01
2017-12-10T08:03:59.786Z,55.38
2017-12-10T08:06:34.154Z,55.12
2017-12-10T08:09:09.005Z,55.46
2017-12-10T08:11:43.439Z,57.12
2017-12-10T08:14:17.637Z,57.76
2017-12-10T08:16:52.875Z,58.29
2017-12-10T08:19:27.702Z,58.58
2017-12-10T08:22:01.974Z,58.90
2017-12-10T08:24:36.094Z,57.38
2017-12-10T08:27:10.330Z,55.72
2017-12-10T08:29:44.373Z,56.34
2017-12-10T08:32:18.733Z,56.66
2017-12-10T08:34:52.948Z,56.63
2017-12-10T08:37:27.346Z,55.72
2017-12-10T08:40:01.653Z,54.49
2017-12-10T08:42:35.753Z,55.40
2017-12-10T08:45:13.165Z,53.23
2017-12-10T08:47:47.654Z,53.60
2017-12-10T08:50:21.763Z,53.69
2017-12-10T08:52:55.783Z,53.21
2017-12-10T08:55:30.132Z,53.13
2017-12-10T08:58:04.159Z,52.76
2017-12-10T09:00:38.228Z,52.72
2017-12-10T09:03:12.670Z,52.46
2017-12-10T09:05:47.071Z,52.77
2017-12-10T09:08:21.406Z,52.79
2017-12-10T09:10:55.997Z,52.90
2017-12-10T09:13:30.094Z,52.29
2017-12-10T09:16:04.172Z,52.20
2017-12-10T09:18:38.212Z,51.64
2017-12-10T09:21:12.323Z,51.97
2017-12-10T09:23:46.379Z,52.16
2017-12-10T09:26:20.586Z,53.40
2017-12-10T09:28:54.938Z,53.93
2017-12-10T09:31:29.333Z,53.99
2017-12-10T09:34:03.610Z,53.96
2017-12-10T09:36:37.722Z,54.29
2017-12-10T09:39:11.922Z,54.72
2017-12-10T09:41:46.116Z,54.93
2017-12-10T09:44:20.262Z,54.35
2017-12-10T09:46:54.282Z,54.66
2017-12-10T09:49:28.417Z,53.84
2017-12-10T09:52:02.490Z,54.44
2017-12-10T09:54:36.542Z,53.56
2017-12-10T09:57:10.588Z,54.47
2017-12-10T09:59:44.995Z,53.93
2017-12-10T10:02:19.032Z,52.17
2017-12-10T10:04:53.269Z,52.32
2017-12-10T10:07:27.314Z,50.76
2017-12-10T10:10:01.611Z,48.96
2017-12-10T10:12:35.815Z,44.37
2017-12-10T10:15:15.464Z,42.14
2017-12-10T10:17:49.621Z,40.72
2017-12-10T10:20:23.695Z,38.59
2017-12-10T10:22:58.285Z,37.22
2017-12-10T10:25:32.615Z,36.62
2017-12-10T10:28:06.829Z,36.84
2017-12-10T10:30:40.915Z,35.54
2017-12-10T10:33:16.266Z,34.83
2017-12-10T10:35:50.852Z,33.83
2017-12-10T10:38:24.863Z,33.02
2017-12-10T10:40:58.946Z,34.74
2017-12-10T10:43:32.966Z,35.82
2017-12-10T10:46:07.098Z,36.48
2017-12-10T10:48:41.339Z,37.51
2017-12-10T10:51:15.501Z,37.92
2017-12-10T10:53:49.609Z,37.83
2017-12-10T10:56:24.027Z,38.49
2017-12-10T10:58:58.642Z,39.82
2017-12-10T11:01:32.950Z,39.63
2017-12-10T11:04:07.393Z,40.86
2017-12-10T11:06:41.570Z,41.81
2017-12-10T11:09:16.342Z,42.25
2017-12-10T11:11:50.458Z,42.29
2017-12-10T11:14:25.466Z,41.69
2017-12-10T11:16:59.683Z,40.36
2017-12-10T11:19:33.875Z,40.26
2017-12-10T11:22:08.291Z,39.90
2017-12-10T11:24:42.413Z,40.17
2017-12-10T11:27:16.427Z,40.42
2017-12-10T11:29:50.673Z,40.23
2017-12-10T11:32:24.743Z,39.89
2017-12-10T11:34:59.209Z,40.24
2017-12-10T11:37:33.285Z,40.39
2017-12-10T11:40:13.838Z,40.14
2017-12-10T11:42:48.049Z,39.41
2017-12-10T11:45:22.207Z,39.47
2017-12-10T11:47:56.430Z,39.24
2017-12-10T11:50:30.826Z,38.81
2017-12-10T11:53:05.025Z,37.99
2017-12-10T11:55:39.143Z,37.62
2017-12-10T11:58:13.178Z,36.40
2017-12-10T12:00:47.626Z,36.54
2017-12-10T12:03:21.809Z,36.75
2017-12-10T12:05:56.029Z,37.10
2017-12-10T12:08:30.091Z,36.83
2017-12-10T12:11:04.112Z,36.86
2017-12-10T12:13:38.322Z,36.52
2017-12-10T12:16:12.440Z,36.23
2017-12-10T12:18:47.381Z,36.02
2017-12-10T12:21:21.416Z,36.30
2017-12-10T12:23:55.917Z,36.83
2017-12-10T12:26:30.310Z,37.88
2017-12-10T12:29:04.582Z,38.96
2017-12-10T12:31:38.758Z,39.70
2017-12-10T12:34:12.955Z,40.18
2017-12-10T12:36:47.117Z,39.71
2017-12-10T12:39:21.718Z,39.58
2017-12-10T12:41:56.062Z,39.97
2017-12-10T12:44:30.353Z,39.84
2017-12-10T12:47:04.761Z,39.68
2017-12-10T12:49:39.270Z,40.61
2017-12-10T12:52:13.378Z,40.79
2017-12-10T12:54:47.546Z,41.17
2017-12-10T12:57:21.596Z,41.66
2017-12-10T12:59:55.750Z,42.59
2017-12-10T13:02:30.278Z,42.86
2017-12-10T13:05:13.330Z,43.53
2017-12-10T13:07:47.390Z,44.58
2017-12-10T13:10:21.420Z,44.48
2017-12-10T13:12:55.657Z,44.48
2017-12-10T13:15:29.774Z,44.90
2017-12-10T13:18:03.619Z,45.62
2017-12-10T13:20:37.753Z,45.80
2017-12-10T13:23:11.821Z,46.25
2017-12-10T13:25:45.922Z,46.65
2017-12-10T13:28:19.878Z,46.32
2017-12-10T13:30:54.701Z,46.68
2017-12-10T13:33:28.830Z,46.86
2017-12-10T13:36:03.257Z,47.52
2017-12-10T13:38:37.467Z,47.56
2017-12-10T13:41:11.376Z,47.68
2017-12-10T13:43:45.860Z,47.75
2017-12-10T13:46:19.910Z,47.46
2017-12-10T13:48:54.069Z,47.65
2017-12-10T13:51:28.882Z,48.13
2017-12-10T13:54:02.967Z,48.52
2017-12-10T13:56:37.386Z,48.65
2017-12-10T13:59:11.896Z,48.70
2017-12-10T14:01:46.947Z,48.98
2017-12-10T14:04:21.232Z,49.59
2017-12-10T14:06:55.430Z,49.77
2017-12-10T14:09:29.793Z,50.07
2017-12-10T14:12:04.634Z,49.95
2017-12-10T14:14:38.807Z,49.77
2017-12-10T14:17:12.854Z,50.32
2017-12-10T14:19:47.354Z,50.45
2017-12-10T14:22:21.259Z,50.65
2017-12-10T14:24:55.561Z,50.65
2017-12-10T14:27:29.581Z,50.45
2017-12-10T14:32:44.082Z,51.16
2017-12-10T14:35:18.517Z,51.54
2017-12-10T14:37:52.642Z,51.63
2017-12-10T14:40:26.839Z,52.30
2017-12-10T14:43:02.014Z,52.64
2017-12-10T14:45:36.288Z,52.82
2017-12-10T14:48:10.937Z,53.10
2017-12-10T14:50:44.974Z,53.37
2017-12-10T14:53:19.455Z,53.82
2017-12-10T14:55:53.890Z,54.11
2017-12-10T14:58:28.082Z,54.41
2017-12-10T15:01:02.378Z,54.08
2017-12-10T15:03:36.337Z,54.12
2017-12-10T15:06:10.931Z,54.13
2017-12-10T15:08:45.430Z,54.00
2017-12-10T15:11:19.467Z,53.83
2017-12-10T15:13:53.655Z,54.10
2017-12-10T15:16:27.693Z,54.21
2017-12-10T15:19:02.662Z,54.16
2017-12-10T15:21:36.777Z,54.28
2017-12-10T15:24:10.902Z,54.10
2017-12-10T15:26:45.027Z,54.38
2017-12-10T15:29:19.517Z,54.63
2017-12-10T15:31:53.887Z,54.50
2017-12-10T15:34:28.357Z,54.77
2017-12-10T15:37:02.503Z,54.65
2017-12-10T15:39:37.070Z,54.40
2017-12-10T15:42:11.201Z,54.21
2017-12-10T15:44:45.321Z,54.06
2017-12-10T15:47:19.410Z,53.93
2017-12-10T15:49:53.885Z,53.38
2017-12-10T15:52:28.047Z,52.83
2017-12-10T15:55:02.409Z,52.80
2017-12-10T15:57:41.120Z,52.78
2017-12-10T16:00:15.163Z,52.04
2017-12-10T16:02:49.644Z,52.22
2017-12-10T16:05:23.702Z,51.45
2017-12-10T16:07:57.822Z,51.31
2017-12-10T16:10:31.894Z,50.88
2017-12-10T16:13:06.106Z,50.75
2017-12-10T16:15:40.178Z,50.43
2017-12-10T16:18:14.394Z,50.46
2017-12-10T16:20:48.676Z,50.24
2017-12-10T16:23:22.951Z,50.18
2017-12-10T16:25:57.357Z,50.06
2017-12-10T16:28:31.528Z,49.81
2017-12-10T16:31:05.582Z,49.22
2017-12-10T16:33:39.825Z,49.15
2017-12-10T16:36:14.270Z,49.28
2017-12-10T16:38:48.421Z,48.97
2017-12-10T16:41:22.430Z,48.96
2017-12-10T16:43:56.868Z,48.85
2017-12-10T16:46:30.952Z,48.73
2017-12-10T16:49:05.109Z,48.58
2017-12-10T16:51:39.220Z,48.71
2017-12-10T16:54:13.539Z,48.82
2017-12-10T16:56:47.870Z,48.80
2017-12-10T16:59:22.356Z,48.86
2017-12-10T17:01:56.746Z,48.63
2017-12-10T17:04:30.661Z,48.19
2017-12-10T17:07:04.655Z,47.98
2017-12-10T17:09:38.890Z,48.17
2017-12-10T17:12:13.314Z,48.67
2017-12-10T17:14:47.515Z,48.75
2017-12-10T17:17:21.652Z,49.06
2017-12-10T17:19:55.890Z,48.39
2017-12-10T17:22:29.937Z,49.15
2017-12-10T17:27:44.016Z,50.25
2017-12-10T17:30:18.394Z,50.47
2017-12-10T17:32:52.483Z,50.61
2017-12-10T17:35:26.639Z,50.79
2017-12-10T17:38:00.755Z,50.06
2017-12-10T17:40:34.943Z,49.93
2017-12-10T17:43:09.502Z,50.67
2017-12-10T17:45:44.848Z,49.69
2017-12-10T17:48:19.803Z,49.26
2017-12-10T17:50:53.919Z,49.13
2017-12-10T17:53:28.403Z,49.17
2017-12-10T17:56:02.258Z,48.56
2017-12-10T17:58:36.450Z,48.36
2017-12-10T18:01:10.479Z,48.32
2017-12-10T18:03:44.661Z,49.01
2017-12-10T18:06:19.049Z,48.82
2017-12-10T18:08:53.372Z,49.57
2017-12-10T18:11:27.550Z,50.02
2017-12-10T18:14:01.656Z,49.10
2017-12-10T18:16:35.654Z,49.29
2017-12-10T18:19:09.698Z,50.60
2017-12-10T18:21:43.836Z,51.58
2017-12-10T18:24:18.105Z,56.72
2017-12-10T18:26:52.510Z,59.20
2017-12-10T18:29:26.710Z,59.62
2017-12-10T18:32:01.076Z,59.09
2017-12-10T18:34:35.206Z,58.42
2017-12-10T18:37:09.382Z,58.16
2017-12-10T18:39:43.721Z,58.40
2017-12-10T18:42:17.776Z,57.66
2017-12-10T18:44:51.793Z,57.67
2017-12-10T18:47:26.230Z,57.27
2017-12-10T18:50:00.421Z,56.89
2017-12-10T18:52:34.530Z,56.21
2017-12-10T18:55:11.963Z,55.65
2017-12-10T18:57:46.082Z,55.40
2017-12-10T19:00:20.247Z,55.12
2017-12-10T19:02:54.638Z,55.26
2017-12-10T19:05:29.074Z,55.49
2017-12-10T19:08:03.102Z,56.30
2017-12-10T19:10:37.222Z,57.24
2017-12-10T19:13:11.784Z,57.98
2017-12-10T19:15:46.085Z,58.23
2017-12-10T19:18:20.251Z,58.34
2017-12-10T19:20:54.370Z,57.42
2017-12-10T19:23:28.866Z,55.88
2017-12-10T19:26:03.015Z,54.44
2017-12-10T19:28:37.153Z,53.56
2017-12-10T19:31:11.199Z,53.55
2017-12-10T19:33:45.619Z,52.90
2017-12-10T19:36:20.007Z,52.38
2017-12-10T19:38:54.074Z,52.33
2017-12-10T19:41:28.219Z,52.16
2017-12-10T19:44:02.341Z,51.71
2017-12-10T19:46:36.590Z,51.47
2017-12-10T19:49:10.737Z,51.29
2017-12-10T19:51:44.817Z,51.47
2017-12-10T19:54:18.906Z,51.36
2017-12-10T19:56:52.974Z,51.60
2017-12-10T19:59:27.358Z,51.45
2017-12-10T20:02:01.494Z,51.76
2017-12-10T20:04:35.508Z,51.34
2017-12-10T20:07:09.530Z,51.77
2017-12-10T20:09:43.741Z,52.08
2017-12-10T20:12:17.915Z,52.50
2017-12-10T20:14:51.938Z,52.58
2017-12-10T20:17:25.950Z,53.41
2017-12-10T20:20:00.513Z,53.64
2017-12-10T20:22:34.559Z,53.61
2017-12-10T20:25:10.575Z,53.89
2017-12-10T20:27:44.776Z,54.23
2017-12-10T20:30:19.038Z,53.56
2017-12-10T20:32:53.582Z,52.90
2017-12-10T20:35:27.606Z,54.21
2017-12-10T20:38:01.853Z,54.67
2017-12-10T20:40:35.922Z,55.74
2017-12-10T20:43:10.117Z,56.74
2017-12-10T20:45:44.654Z,57.48
2017-12-10T20:48:18.670Z,58.22
2017-12-10T20:50:52.790Z,59.25
2017-12-10T20:53:27.044Z,59.45
2017-12-10T20:56:01.094Z,59.30
2017-12-10T20:58:35.234Z,59.68
2017-12-10T21:01:09.701Z,59.68
2017-12-10T21:03:43.853Z,57.47
2017-12-10T21:06:17.962Z,55.69
2017-12-10T21:08:52.538Z,52.50
2017-12-10T21:11:26.894Z,50.47
2017-12-10T21:14:01.082Z,49.20
2017-12-10T21:16:35.210Z,48.16
2017-12-10T21:19:09.438Z,47.27
2017-12-10T21:21:43.486Z,47.16
2017-12-10T21:24:18.102Z,47.34
2017-12-10T21:26:52.138Z,47.74
2017-12-10T21:29:26.290Z,47.72
2017-12-10T21:32:00.345Z,48.12
2017-12-10T21:34:34.457Z,48.68
2017-12-10T21:37:08.486Z,49.30
2017-12-10T21:39:42.758Z,49.95
2017-12-10T21:42:17.152Z,50.71
2017-12-10T21:44:51.222Z,51.59
2017-12-10T21:47:25.252Z,52.27
2017-12-10T21:49:59.286Z,52.92
2017-12-10T21:52:33.693Z,53.44
2017-12-10T21:55:14.857Z,53.57
2017-12-10T21:57:49.090Z,53.88
2017-12-10T22:00:23.167Z,54.06
2017-12-10T22:02:57.298Z,54.40
2017-12-10T22:05:31.726Z,54.91
2017-12-10T22:08:06.153Z,55.11
2017-12-10T22:10:40.622Z,55.08
2017-12-10T22:13:15.143Z,55.28
2017-12-10T22:15:49.197Z,55.34
2017-12-10T22:18:23.455Z,55.03
2017-12-10T22:20:57.558Z,54.83
2017-12-10T22:23:31.734Z,54.84
2017-12-10T22:26:05.778Z,55.04
2017-12-10T22:28:39.833Z,55.28
2017-12-10T22:31:14.235Z,55.26
2017-12-10T22:33:48.394Z,54.93
2017-12-10T22:36:22.414Z,54.68
2017-12-10T22:38:56.545Z,54.83
2017-12-10T22:41:30.625Z,55.04
2017-12-10T22:44:05.010Z,55.25
2017-12-10T22:46:39.458Z,55.43
2017-12-10T22:49:13.997Z,55.62
2017-12-10T22:51:48.414Z,55.97
2017-12-10T22:54:23.054Z,56.42
2017-12-10T22:56:57.536Z,57.02
2017-12-10T22:59:31.939Z,57.49
2017-12-10T23:02:06.330Z,58.28
2017-12-10T23:04:41.403Z,58.80
2017-12-10T23:07:15.954Z,58.85
2017-12-10T23:09:50.449Z,59.09
2017-12-10T23:12:24.902Z,59.06
2017-12-10T23:15:10.641Z,59.07
2017-12-10T23:17:45.197Z,59.08
2017-12-10T23:20:26.588Z,58.97
2017-12-10T23:23:00.970Z,59.04
2017-12-10T23:25:35.362Z,59.10
2017-12-10T23:28:09.549Z,59.76
2017-12-10T23:30:43.582Z,59.92
2017-12-10T23:33:17.775Z,60.27
2017-12-10T23:35:51.921Z,60.70
2017-12-10T23:38:27.014Z,61.72
2017-12-10T23:41:01.486Z,62.50
2017-12-10T23:43:36.225Z,63.32
2017-12-10T23:46:10.314Z,63.74
2017-12-10T23:48:44.725Z,64.20
2017-12-10T23:51:19.134Z,64.82
2017-12-10T23:53:53.658Z,65.38
2017-12-10T23:56:28.066Z,65.62
2017-12-10T23:59:02.401Z,66.00
